Time;durP1;ratioP1;P1;durP2;ratioP2;P2;SDS_P1;SDS_P2;PMS_P1;PMS_P2;Temp;Humidity;BMP_temperature;BMP_pressure;BME280_temperature;BME280_humidity;BME280_pressure;Samples;Min_cycle;Max_cycle;Signal;HPM_P1;HPM_P2
2021/04/28 00:01:39;;;;;;;28.67;25.52;;;16.00;58.20;;;;;;5062833;28;20539;-52
2021/04/28 00:04:05;;;;;;;30.20;26.38;;;16.00;57.90;;;;;;5065283;28;20036;-52
2021/04/28 00:06:32;;;;;;;30.25;26.98;;;15.90;58.10;;;;;;5062099;28;20047;-53
2021/04/28 00:08:58;;;;;;;30.23;27.17;;;15.90;58.30;;;;;;5063028;28;20546;-51
2021/04/28 00:11:24;;;;;;;31.85;26.77;;;15.90;58.10;;;;;;5050913;28;20063;-55
2021/04/28 00:13:50;;;;;;;29.52;26.20;;;15.90;58.10;;;;;;5057174;28;20120;-53
2021/04/28 00:16:19;;;;;;;29.88;26.65;;;16.00;58.10;;;;;;5049538;28;20689;-57
2021/04/28 00:18:46;;;;;;;30.90;26.63;;;15.90;57.80;;;;;;5040124;28;20479;-54
2021/04/28 00:21:13;;;;;;;29.90;26.67;;;15.90;57.80;;;;;;5050227;28;20048;-52
2021/04/28 00:23:39;;;;;;;30.08;26.20;;;15.80;57.80;;;;;;5049910;28;20489;-56
2021/04/28 00:26:05;;;;;;;31.55;27.95;;;15.80;58.30;;;;;;5042508;28;20471;-56
2021/04/28 00:28:31;;;;;;;32.03;28.55;;;15.80;58.40;;;;;;5050144;28;20121;-52
2021/04/28 00:30:56;;;;;;;32.25;28.83;;;15.80;58.30;;;;;;5046807;28;22224;-52
2021/04/28 00:33:22;;;;;;;32.25;28.48;;;15.70;58.60;;;;;;5045359;28;20037;-54
2021/04/28 00:35:47;;;;;;;33.15;29.30;;;15.80;58.30;;;;;;5044790;28;20102;-56
2021/04/28 00:38:13;;;;;;;31.42;27.98;;;15.80;58.30;;;;;;5039899;28;20048;-54
2021/04/28 00:40:41;;;;;;;36.85;29.48;;;15.70;58.60;;;;;;5050958;28;20082;-54
2021/04/28 00:43:07;;;;;;;30.60;27.33;;;15.80;58.40;;;;;;5044782;28;20045;-52
2021/04/28 00:45:34;;;;;;;31.83;28.35;;;15.80;58.30;;;;;;5044696;28;20036;-51
2021/04/28 00:48:03;;;;;;;32.17;28.83;;;15.80;58.40;;;;;;5050088;28;20077;-54
2021/04/28 00:50:35;;;;;;;32.15;28.33;;;15.80;58.70;;;;;;5049393;28;20494;-52
2021/04/28 00:53:03;;;;;;;31.67;28.10;;;15.80;58.40;;;;;;5044189;28;20455;-53
2021/04/28 00:55:29;;;;;;;31.88;28.50;;;15.90;58.40;;;;;;5059320;28;20048;-53
2021/04/28 00:57:55;;;;;;;34.35;30.63;;;15.90;58.40;;;;;;5060284;28;20040;-51
2021/04/28 01:00:22;;;;;;;36.58;30.33;;;15.80;58.30;;;;;;5066100;28;20053;-50
2021/04/28 01:02:49;;;;;;;33.20;29.63;;;15.90;58.40;;;;;;5024435;28;20087;-52
2021/04/28 01:05:15;;;;;;;36.58;29.23;;;15.80;58.20;;;;;;5046698;28;20037;-54
2021/04/28 01:07:43;;;;;;;37.08;31.23;;;15.80;58.30;;;;;;5040560;28;20966;-57
2021/04/28 01:10:12;;;;;;;33.65;29.88;;;15.80;58.50;;;;;;5050028;28;20068;-54
2021/04/28 01:12:39;;;;;;;33.95;30.20;;;15.80;58.30;;;;;;5043196;28;20040;-52
2021/04/28 01:15:08;;;;;;;34.22;29.98;;;15.80;58.20;;;;;;5046810;28;20051;-52
2021/04/28 01:17:34;;;;;;;32.72;29.33;;;15.90;58.30;;;;;;5061535;28;20064;-55
2021/04/28 01:19:59;;;;;;;35.75;31.55;;;15.80;58.30;;;;;;5053989;28;20053;-55
2021/04/28 01:22:25;;;;;;;37.25;31.67;;;15.80;58.00;;;;;;5047010;28;20041;-56
2021/04/28 01:24:51;;;;;;;36.75;31.55;;;15.80;58.10;;;;;;5053349;28;20041;-52
2021/04/28 01:27:26;;;;;;;35.38;31.08;;;15.80;58.20;;;;;;5065086;28;20228;-53
2021/04/28 01:29:51;;;;;;;;;;;15.80;58.10;;;;;;5048582;28;20045;-51
2021/04/28 01:32:21;;;;;;;39.00;31.08;;;15.70;58.50;;;;;;5046835;28;20299;-54
2021/04/28 01:34:49;;;;;;;36.25;30.67;;;15.80;58.10;;;;;;5041454;28;20516;-52
2021/04/28 01:37:16;;;;;;;33.90;29.85;;;15.80;58.30;;;;;;5055719;28;20051;-52
2021/04/28 01:39:43;;;;;;;36.75;29.67;;;15.80;58.00;;;;;;5052678;28;20091;-53
2021/04/28 01:42:10;;;;;;;35.85;30.05;;;15.90;57.80;;;;;;5061672;28;20402;-51
2021/04/28 01:44:36;;;;;;;35.13;30.13;;;15.80;57.60;;;;;;5008719;28;20036;-52
2021/04/28 01:47:03;;;;;;;39.00;30.58;;;15.80;57.60;;;;;;5048179;28;20029;-55
2021/04/28 01:49:31;;;;;;;35.55;31.05;;;15.80;58.10;;;;;;5051527;28;20056;-54
2021/04/28 01:51:57;;;;;;;37.55;32.30;;;15.80;57.80;;;;;;5063704;28;20029;-51
2021/04/28 01:54:23;;;;;;;35.33;30.48;;;15.80;57.80;;;;;;5062420;28;20032;-52
2021/04/28 01:56:52;;;;;;;33.05;29.42;;;15.70;57.80;;;;;;5039362;28;20112;-53
2021/04/28 01:59:20;;;;;;;35.42;30.83;;;15.80;57.70;;;;;;5036145;28;20041;-52
2021/04/28 02:01:48;;;;;;;35.30;30.75;;;15.80;57.40;;;;;;5033623;28;20507;-55
2021/04/28 02:04:15;;;;;;;35.15;30.70;;;15.90;57.60;;;;;;5035304;28;20045;-54
2021/04/28 02:06:42;;;;;;;35.70;31.23;;;15.80;57.40;;;;;;5037509;28;20479;-57
2021/04/28 02:09:07;;;;;;;38.10;30.48;;;15.70;57.30;;;;;;5050052;28;20033;-52
2021/04/28 02:11:34;;;;;;;33.78;30.00;;;15.70;57.30;;;;;;5043228;28;20037;-57
2021/04/28 02:14:01;;;;;;;34.42;30.50;;;15.70;57.40;;;;;;5039737;28;20064;-56
2021/04/28 02:16:30;;;;;;;38.40;30.83;;;15.70;57.10;;;;;;5045419;28;20044;-55
2021/04/28 02:18:57;;;;;;;34.33;30.63;;;15.70;57.10;;;;;;5049731;28;20044;-55
2021/04/28 02:21:23;;;;;;;37.58;29.98;;;15.70;56.80;;;;;;5041732;28;20398;-53
2021/04/28 02:23:49;;;;;;;34.38;29.67;;;15.70;56.70;;;;;;5045065;28;20037;-55
2021/04/28 02:26:14;;;;;;;33.13;29.25;;;15.70;56.80;;;;;;5035053;28;20030;-53
2021/04/28 02:28:40;;;;;;;36.58;29.30;;;15.70;56.80;;;;;;5046788;28;20517;-51
2021/04/28 02:31:06;;;;;;;37.05;31.38;;;15.70;56.80;;;;;;5045699;28;20037;-55
2021/04/28 02:33:34;;;;;;;38.63;31.85;;;15.70;56.70;;;;;;5044084;28;20069;-55
2021/04/28 02:36:00;;;;;;;32.35;28.60;;;15.70;56.60;;;;;;5037563;28;20045;-56
2021/04/28 02:38:33;;;;;;;35.42;29.75;;;15.80;56.60;;;;;;5034717;28;20033;-52
2021/04/28 02:41:01;;;;;;;36.10;29.92;;;15.70;56.30;;;;;;5035523;28;20042;-55
2021/04/28 02:43:28;;;;;;;37.35;31.90;;;15.70;56.30;;;;;;5042085;28;20025;-57
2021/04/28 02:45:57;;;;;;;33.97;30.27;;;15.70;56.30;;;;;;5034081;28;20140;-56
2021/04/28 02:48:25;;;;;;;36.42;30.38;;;15.70;56.20;;;;;;5043763;28;20025;-57
2021/04/28 02:50:51;;;;;;;40.45;30.77;;;15.70;56.30;;;;;;5042768;28;20112;-55
2021/04/28 02:53:18;;;;;;;37.63;31.15;;;15.60;56.20;;;;;;5039752;28;20083;-56
2021/04/28 02:55:45;;;;;;;38.97;31.90;;;15.60;56.30;;;;;;5035474;28;20485;-54
2021/04/28 02:58:12;;;;;;;34.75;30.60;;;15.70;56.20;;;;;;5011024;28;20042;-53
2021/04/28 03:00:38;;;;;;;36.55;30.40;;;15.60;56.00;;;;;;5017353;28;20448;-54
2021/04/28 03:03:04;;;;;;;34.10;30.38;;;15.60;56.10;;;;;;5017906;28;20529;-55
2021/04/28 03:05:30;;;;;;;33.90;30.00;;;15.60;56.20;;;;;;5024872;28;20423;-57
2021/04/28 03:07:56;;;;;;;33.72;29.95;;;15.70;56.10;;;;;;5023865;28;20124;-57
2021/04/28 03:10:23;;;;;;;35.17;29.58;;;15.70;56.00;;;;;;5026260;28;20526;-53
2021/04/28 03:12:48;;;;;;;39.55;32.08;;;15.70;56.20;;;;;;5006450;28;20480;-57
2021/04/28 03:15:36;;;;;;;36.42;30.65;;;15.70;55.80;;;;;;5024253;28;20095;-59
2021/04/28 03:18:02;;;;;;;36.83;29.70;;;15.70;56.20;;;;;;5022904;28;20372;-57
2021/04/28 03:20:39;;;;;;;37.03;32.83;;;15.70;55.70;;;;;;5022520;28;20046;-57
2021/04/28 03:23:06;;;;;;;38.88;33.35;;;15.70;55.90;;;;;;5024059;28;20107;-57
2021/04/28 03:25:33;;;;;;;40.45;32.95;;;15.60;55.60;;;;;;5018337;28;20049;-57
2021/04/28 03:27:58;;;;;;;35.58;31.17;;;15.70;55.80;;;;;;5024086;28;20037;-55
2021/04/28 03:30:24;;;;;;;39.38;31.90;;;15.70;55.70;;;;;;5025239;28;20231;-54
2021/04/28 03:32:50;;;;;;;37.30;32.65;;;15.60;55.90;;;;;;5017772;28;20044;-55
2021/04/28 03:35:16;;;;;;;41.67;32.58;;;15.70;55.90;;;;;;5020864;28;20054;-55
2021/04/28 03:37:43;;;;;;;37.03;33.03;;;15.60;55.50;;;;;;5021261;28;20041;-55
2021/04/28 03:40:09;;;;;;;42.97;34.30;;;15.60;55.60;;;;;;5016868;28;20049;-54
2021/04/28 03:42:35;;;;;;;42.72;35.05;;;15.60;55.60;;;;;;5023808;28;20045;-52
2021/04/28 03:45:01;;;;;;;38.78;32.25;;;15.60;55.40;;;;;;5022251;28;20499;-56
2021/04/28 03:47:27;;;;;;;38.83;34.00;;;15.60;55.70;;;;;;5023937;28;20123;-54
2021/04/28 03:49:52;;;;;;;38.90;34.15;;;15.60;55.60;;;;;;5015186;28;20042;-52
2021/04/28 03:52:18;;;;;;;41.72;34.25;;;15.60;55.70;;;;;;5017101;28;20078;-50
2021/04/28 03:54:44;;;;;;;41.40;34.90;;;15.60;55.70;;;;;;5009411;28;20064;-52
2021/04/28 03:57:10;;;;;;;42.78;34.35;;;15.60;55.60;;;;;;5037542;28;20136;-54
2021/04/28 03:59:36;;;;;;;41.72;34.00;;;15.50;55.60;;;;;;5036527;28;20033;-54
2021/04/28 04:02:03;;;;;;;43.10;35.03;;;15.60;55.70;;;;;;5034408;28;20048;-56
2021/04/28 04:04:29;;;;;;;38.85;32.72;;;15.50;55.50;;;;;;5025981;28;20111;-56
2021/04/28 04:06:54;;;;;;;41.08;32.42;;;15.60;55.50;;;;;;5042715;28;20480;-53
2021/04/28 04:09:20;;;;;;;41.83;34.00;;;15.60;55.50;;;;;;5034404;28;20091;-52
2021/04/28 04:11:46;;;;;;;37.58;32.83;;;15.60;55.40;;;;;;5032932;28;20499;-53
2021/04/28 04:14:12;;;;;;;41.75;32.88;;;15.60;55.70;;;;;;5035201;28;20087;-52
2021/04/28 04:16:38;;;;;;;42.13;34.97;;;15.60;55.70;;;;;;5028087;28;20038;-56
2021/04/28 04:19:03;;;;;;;42.28;35.20;;;15.60;55.90;;;;;;5033701;28;20045;-52
2021/04/28 04:21:29;;;;;;;40.15;33.55;;;15.60;55.80;;;;;;5029035;28;20029;-53
2021/04/28 04:23:55;;;;;;;42.70;36.10;;;15.60;55.90;;;;;;5025771;28;20413;-55
2021/04/28 04:26:20;;;;;;;47.40;36.38;;;15.60;56.00;;;;;;5018665;28;20109;-56
2021/04/28 04:28:46;;;;;;;42.33;35.90;;;15.50;56.30;;;;;;5031829;28;20045;-56
2021/04/28 04:31:12;;;;;;;45.95;37.13;;;15.40;56.70;;;;;;5036942;28;20029;-55
2021/04/28 04:33:38;;;;;;;44.65;36.67;;;15.60;56.60;;;;;;5029066;28;20440;-52
2021/04/28 04:36:04;;;;;;;45.00;37.75;;;15.40;56.60;;;;;;5034196;28;20049;-54
2021/04/28 04:38:30;;;;;;;44.45;36.00;;;15.50;56.90;;;;;;5024953;28;20115;-53
2021/04/28 04:40:55;;;;;;;46.08;37.88;;;15.50;56.90;;;;;;5020251;28;20076;-56
2021/04/28 04:43:21;;;;;;;43.85;36.28;;;15.50;56.80;;;;;;5034570;28;20120;-54
2021/04/28 04:45:47;;;;;;;46.90;37.60;;;15.50;56.70;;;;;;5029305;28;20187;-52
2021/04/28 04:48:13;;;;;;;45.95;37.35;;;15.50;56.90;;;;;;5038825;28;20551;-54
2021/04/28 04:50:39;;;;;;;44.85;35.90;;;15.50;56.70;;;;;;5025856;28;20037;-54
2021/04/28 04:53:06;;;;;;;47.47;37.58;;;15.40;56.80;;;;;;5029595;28;20041;-55
2021/04/28 04:55:33;;;;;;;45.25;37.00;;;15.50;57.00;;;;;;5035045;28;20045;-54
2021/04/28 04:57:59;;;;;;;43.17;36.92;;;15.50;56.80;;;;;;5041051;28;20436;-54
2021/04/28 05:00:25;;;;;;;48.30;37.65;;;15.50;57.00;;;;;;5065493;28;20040;-53
2021/04/28 05:02:50;;;;;;;45.10;36.00;;;15.50;56.90;;;;;;5048167;28;20036;-52
2021/04/28 05:05:16;;;;;;;40.65;36.25;;;15.50;57.20;;;;;;5050720;28;20124;-57
2021/04/28 05:07:42;;;;;;;46.17;37.33;;;15.50;57.30;;;;;;5041477;28;20112;-54
2021/04/28 05:10:10;;;;;;;43.33;36.70;;;15.50;57.10;;;;;;5046797;28;20672;-54
2021/04/28 05:12:36;;;;;;;43.97;36.95;;;15.50;57.50;;;;;;5049997;28;20445;-55
2021/04/28 05:15:03;;;;;;;43.95;36.22;;;15.50;57.30;;;;;;5065412;28;20040;-52
2021/04/28 05:17:29;;;;;;;46.15;37.00;;;15.50;57.40;;;;;;5050919;28;20041;-55
2021/04/28 05:19:54;;;;;;;40.40;33.67;;;15.60;57.50;;;;;;5061070;28;20040;-51
2021/04/28 05:22:23;;;;;;;38.58;32.40;;;15.70;57.40;;;;;;5054008;28;20043;-53
2021/04/28 05:24:49;;;;;;;36.47;29.90;;;15.70;57.50;;;;;;5037327;28;20501;-55
2021/04/28 05:27:15;;;;;;;36.03;31.77;;;15.70;57.30;;;;;;5045133;28;20095;-56
2021/04/28 05:29:41;;;;;;;36.35;27.90;;;15.80;57.10;;;;;;5049360;28;20040;-53
2021/04/28 05:32:06;;;;;;;32.72;27.45;;;15.70;57.30;;;;;;5058164;28;20036;-51
2021/04/28 05:34:32;;;;;;;38.67;30.58;;;15.60;57.50;;;;;;5047474;28;20051;-52
2021/04/28 05:36:57;;;;;;;32.38;25.38;;;15.80;57.70;;;;;;5057553;28;20045;-51
2021/04/28 05:39:23;;;;;;;30.70;26.27;;;15.80;57.00;;;;;;5060346;28;20051;-53
2021/04/28 05:41:49;;;;;;;33.25;27.38;;;15.70;57.20;;;;;;5060880;28;20063;-56
2021/04/28 05:44:14;;;;;;;36.13;26.77;;;15.80;57.10;;;;;;5048993;28;20036;-54
2021/04/28 05:46:40;;;;;;;37.30;28.98;;;15.90;57.10;;;;;;5038217;28;20041;-53
2021/04/28 05:49:06;;;;;;;32.30;28.42;;;15.80;57.20;;;;;;5040221;28;20483;-55
2021/04/28 05:51:31;;;;;;;37.42;29.60;;;15.90;57.10;;;;;;5061078;28;20045;-52
2021/04/28 05:53:58;;;;;;;35.95;28.80;;;15.90;57.10;;;;;;5044610;28;20041;-54
2021/04/28 05:56:24;;;;;;;31.80;27.10;;;15.80;57.10;;;;;;5044179;28;20052;-55
2021/04/28 05:58:49;;;;;;;31.27;26.55;;;15.90;56.80;;;;;;5049558;28;20033;-55
2021/04/28 06:01:15;;;;;;;33.17;27.65;;;16.00;56.70;;;;;;5051705;28;20036;-56
2021/04/28 06:03:41;;;;;;;30.63;25.15;;;15.90;56.80;;;;;;5040245;28;20045;-56
2021/04/28 06:06:08;;;;;;;31.88;26.85;;;16.00;56.80;;;;;;5036306;28;20065;-53
2021/04/28 06:08:34;;;;;;;29.63;25.50;;;15.90;57.00;;;;;;5030034;28;20060;-55
2021/04/28 06:11:00;;;;;;;32.00;27.33;;;16.00;57.00;;;;;;5039003;28;20033;-56
2021/04/28 06:13:26;;;;;;;30.13;23.17;;;16.00;56.80;;;;;;5053941;28;20046;-54
2021/04/28 06:15:51;;;;;;;24.83;22.13;;;16.10;56.50;;;;;;5035476;28;20621;-55
2021/04/28 06:18:17;;;;;;;26.90;23.13;;;16.10;56.20;;;;;;5044653;28;20044;-58
2021/04/28 06:20:43;;;;;;;28.38;23.60;;;16.20;56.10;;;;;;5042001;28;20197;-55
2021/04/28 06:23:08;;;;;;;33.00;25.35;;;16.30;56.00;;;;;;5028297;28;20049;-55
2021/04/28 06:25:34;;;;;;;30.13;22.23;;;16.40;55.60;;;;;;5040418;28;20036;-56
2021/04/28 06:28:01;;;;;;;28.02;23.48;;;16.40;55.60;;;;;;5038894;28;20410;-54
2021/04/28 06:30:26;;;;;;;25.48;21.25;;;16.40;55.60;;;;;;5022315;28;20059;-55
2021/04/28 06:32:52;;;;;;;31.52;22.92;;;16.40;55.50;;;;;;5049432;28;20498;-57
2021/04/28 06:35:18;;;;;;;25.38;22.33;;;16.40;55.80;;;;;;5057085;28;20356;-57
2021/04/28 06:37:44;;;;;;;29.08;21.90;;;16.40;55.50;;;;;;5051984;28;20120;-54
2021/04/28 06:40:11;;;;;;;29.67;23.40;;;16.40;55.60;;;;;;5043647;28;20111;-54
2021/04/28 06:42:37;;;;;;;29.58;21.70;;;16.50;55.30;;;;;;5052249;28;20399;-56
2021/04/28 06:45:05;;;;;;;27.90;21.70;;;16.60;55.10;;;;;;5062779;28;20044;-56
2021/04/28 06:47:30;;;;;;;23.75;21.13;;;16.60;54.60;;;;;;5048866;28;20084;-56
2021/04/28 06:49:56;;;;;;;19.60;17.58;;;16.70;54.70;;;;;;5051875;28;20053;-56
2021/04/28 06:52:22;;;;;;;23.70;21.05;;;16.70;54.30;;;;;;5046625;28;20120;-57
2021/04/28 06:54:47;;;;;;;27.55;21.00;;;16.40;54.80;;;;;;5052792;28;20072;-56
2021/04/28 06:57:13;;;;;;;29.23;24.77;;;16.50;54.90;;;;;;5047615;28;20099;-57
2021/04/28 06:59:39;;;;;;;29.27;21.98;;;16.60;54.80;;;;;;5062887;28;20436;-57
2021/04/28 07:02:04;;;;;;;23.23;20.02;;;16.70;54.70;;;;;;5047656;28;20041;-54
2021/04/28 07:04:30;;;;;;;22.63;19.73;;;16.70;54.40;;;;;;5050247;28;20128;-56
2021/04/28 07:06:56;;;;;;;27.98;20.75;;;16.60;54.10;;;;;;5047720;28;20033;-56
2021/04/28 07:09:22;;;;;;;25.17;21.13;;;16.70;53.70;;;;;;5063044;28;20380;-55
2021/04/28 07:11:47;;;;;;;22.00;18.52;;;16.80;53.90;;;;;;5044938;28;20044;-56
2021/04/28 07:14:13;;;;;;;21.38;17.98;;;16.60;53.80;;;;;;5057291;28;20107;-55
2021/04/28 07:16:39;;;;;;;24.80;19.25;;;16.70;53.80;;;;;;5054007;28;20064;-56
2021/04/28 07:19:05;;;;;;;24.40;17.75;;;16.90;53.30;;;;;;5052528;28;20040;-56
2021/04/28 07:21:31;;;;;;;21.40;16.88;;;16.80;53.10;;;;;;5048091;28;20379;-55
2021/04/28 07:23:57;;;;;;;21.65;18.50;;;16.80;53.60;;;;;;5040922;28;20041;-54
2021/04/28 07:26:23;;;;;;;23.38;18.17;;;16.90;53.40;;;;;;5048755;28;20099;-57
2021/04/28 07:28:49;;;;;;;22.88;19.38;;;16.90;53.20;;;;;;5047938;28;20490;-59
2021/04/28 07:31:17;;;;;;;18.95;16.80;;;16.90;53.50;;;;;;5052081;28;20052;-58
2021/04/28 07:33:44;;;;;;;23.58;18.60;;;16.80;53.00;;;;;;5046553;28;20037;-55
2021/04/28 07:36:10;;;;;;;21.42;17.15;;;16.90;52.80;;;;;;5049143;28;20379;-56
2021/04/28 07:38:36;;;;;;;28.55;19.63;;;17.00;52.80;;;;;;5056081;28;20043;-52
2021/04/28 07:41:02;;;;;;;21.35;18.52;;;17.00;52.90;;;;;;5066330;28;20045;-58
2021/04/28 07:43:28;;;;;;;23.88;17.23;;;17.10;53.00;;;;;;5058852;28;20075;-57
2021/04/28 07:45:54;;;;;;;21.65;17.65;;;17.20;52.20;;;;;;5067722;28;20067;-58
2021/04/28 07:48:21;;;;;;;19.58;16.55;;;17.10;52.10;;;;;;5062616;28;20044;-60
2021/04/28 07:50:46;;;;;;;20.80;17.10;;;17.20;52.00;;;;;;5067828;28;20571;-58
2021/04/28 07:53:12;;;;;;;18.92;16.38;;;17.20;51.30;;;;;;5062383;28;20089;-58
2021/04/28 07:55:38;;;;;;;26.63;18.83;;;17.30;51.00;;;;;;5065348;28;20053;-56
2021/04/28 07:58:05;;;;;;;23.63;18.67;;;17.30;51.00;;;;;;5054511;28;20045;-55
2021/04/28 08:00:31;;;;;;;23.00;17.73;;;17.30;51.00;;;;;;5046032;28;20049;-57
2021/04/28 08:02:56;;;;;;;18.92;16.20;;;17.40;50.70;;;;;;5049742;28;20417;-57
2021/04/28 08:05:22;;;;;;;29.75;17.80;;;17.50;50.40;;;;;;5051247;28;20135;-53
2021/04/28 08:07:49;;;;;;;21.92;16.55;;;17.60;50.60;;;;;;5048340;28;20045;-56
2021/04/28 08:10:15;;;;;;;19.38;16.98;;;17.60;50.20;;;;;;5042968;28;20048;-57
2021/04/28 08:12:40;;;;;;;24.23;17.20;;;17.70;50.10;;;;;;5046011;28;20032;-56
2021/04/28 08:15:07;;;;;;;15.52;13.77;;;17.70;49.90;;;;;;5041798;28;20056;-57
2021/04/28 08:17:33;;;;;;;20.08;15.95;;;17.60;49.30;;;;;;5046351;28;20510;-55
2021/04/28 08:20:00;;;;;;;15.20;12.43;;;17.60;49.20;;;;;;5044873;28;20081;-54
2021/04/28 08:22:26;;;;;;;18.75;12.93;;;17.50;48.40;;;;;;5051461;28;20049;-55
2021/04/28 08:24:53;;;;;;;19.95;15.88;;;17.60;48.70;;;;;;5045374;28;20041;-57
2021/04/28 08:27:19;;;;;;;18.75;16.75;;;17.80;48.60;;;;;;5065853;28;20040;-58
2021/04/28 08:29:44;;;;;;;20.30;16.30;;;17.80;48.70;;;;;;5058702;28;20037;-57
2021/04/28 08:32:10;;;;;;;19.88;15.65;;;17.80;47.50;;;;;;5040892;28;20672;-55
2021/04/28 08:34:36;;;;;;;17.98;14.65;;;17.80;48.10;;;;;;5049541;28;20076;-58
2021/04/28 08:37:01;;;;;;;19.73;16.67;;;17.90;48.30;;;;;;5063526;28;20047;-57
2021/04/28 08:39:27;;;;;;;19.42;17.05;;;18.10;48.20;;;;;;5067525;28;20037;-55
2021/04/28 08:41:53;;;;;;;20.98;16.02;;;18.10;47.90;;;;;;5061766;28;20055;-55
2021/04/28 08:44:21;;;;;;;17.80;15.65;;;18.00;48.50;;;;;;5054046;28;20045;-52
2021/04/28 08:46:47;;;;;;;20.45;16.88;;;18.20;48.40;;;;;;5048859;28;20049;-54
2021/04/28 08:49:13;;;;;;;21.83;17.20;;;18.20;47.50;;;;;;5043911;28;20063;-56
2021/04/28 08:51:40;;;;;;;21.90;16.85;;;18.20;47.80;;;;;;5050286;28;20055;-53
2021/04/28 08:54:06;;;;;;;19.98;17.40;;;18.10;47.50;;;;;;5046333;28;20075;-58
2021/04/28 08:56:33;;;;;;;23.27;18.00;;;18.30;47.80;;;;;;5045439;28;20057;-55
2021/04/28 08:59:04;;;;;;;20.77;18.48;;;18.30;47.30;;;;;;5050032;28;20067;-53
2021/04/28 09:01:32;;;;;;;22.00;18.35;;;18.30;47.60;;;;;;5049164;28;20044;-55
2021/04/28 09:03:59;;;;;;;23.52;19.63;;;18.30;47.70;;;;;;5064609;28;20086;-53
2021/04/28 09:06:35;;;;;;;21.90;18.88;;;18.30;47.30;;;;;;5051417;28;20046;-56
2021/04/28 09:09:11;;;;;;;24.23;21.40;;;18.30;46.80;;;;;;5042447;28;20179;-55
2021/04/28 09:11:43;;;;;;;20.08;17.45;;;18.30;46.70;;;;;;5047505;28;20079;-52
2021/04/28 09:14:10;;;;;;;26.65;18.85;;;18.30;47.50;;;;;;5063490;28;20048;-57
2021/04/28 09:16:37;;;;;;;31.70;19.92;;;18.20;47.60;;;;;;5056170;28;20041;-56
2021/04/28 09:19:03;;;;;;;25.38;19.48;;;18.30;47.60;;;;;;5065110;28;20033;-54
2021/04/28 09:21:48;;;;;;;28.88;20.25;;;18.20;47.20;;;;;;5026896;28;20033;-55
2021/04/28 09:24:25;;;;;;;23.08;19.42;;;18.50;47.50;;;;;;5060991;28;20034;-53
2021/04/28 09:26:54;;;;;;;22.80;18.58;;;18.60;46.90;;;;;;5044557;28;20056;-55
2021/04/28 09:29:23;;;;;;;22.52;20.13;;;18.60;46.90;;;;;;5053647;28;20048;-56
2021/04/28 09:31:54;;;;;;;22.20;19.40;;;18.50;47.70;;;;;;5056624;28;20135;-58
2021/04/28 09:34:41;;;;;;;25.35;19.17;;;18.60;47.50;;;;;;5043238;28;20035;-53
2021/04/28 09:37:12;;;;;;;30.92;20.23;;;18.60;47.50;;;;;;5040812;28;20067;-56
2021/04/28 09:39:42;;;;;;;21.00;18.52;;;18.60;47.40;;;;;;5056964;28;20065;-56
2021/04/28 09:42:08;;;;;;;21.27;19.08;;;18.70;47.80;;;;;;5054074;28;20162;-56
2021/04/28 09:44:37;;;;;;;19.55;16.98;;;18.60;47.10;;;;;;5056540;28;20032;-55
2021/04/28 09:47:21;;;;;;;19.65;17.67;;;18.60;46.70;;;;;;5063923;28;20037;-54
2021/04/28 09:49:58;;;;;;;21.58;17.95;;;18.70;46.30;;;;;;5063539;28;20036;-54
2021/04/28 09:52:30;;;;;;;19.40;17.33;;;18.60;46.60;;;;;;5053973;28;20723;-56
2021/04/28 09:55:00;;;;;;;20.42;18.17;;;18.60;46.90;;;;;;5044731;28;20411;-54
2021/04/28 09:57:40;;;;;;;20.25;18.15;;;18.70;45.60;;;;;;5043246;28;20143;-55
2021/04/28 10:00:19;;;;;;;18.55;16.65;;;18.80;45.40;;;;;;5032643;28;20060;-55
2021/04/28 10:02:56;;;;;;;19.10;17.10;;;18.90;45.20;;;;;;5046012;28;20490;-53
2021/04/28 10:05:24;;;;;;;20.23;17.90;;;18.80;45.00;;;;;;5040785;28;20120;-53
2021/04/28 10:08:11;;;;;;;19.02;17.02;;;18.90;45.20;;;;;;5051650;28;20033;-55
2021/04/28 10:10:38;;;;;;;20.60;17.60;;;19.10;44.80;;;;;;5046179;28;20041;-53
2021/04/28 10:13:04;;;;;;;23.05;18.42;;;19.10;44.40;;;;;;5048209;28;20123;-53
2021/04/28 10:15:30;;;;;;;19.02;17.02;;;19.30;44.40;;;;;;5045750;28;20041;-54
2021/04/28 10:18:01;;;;;;;19.95;16.77;;;19.30;44.50;;;;;;5049533;28;20041;-54
2021/04/28 10:20:28;;;;;;;18.73;16.15;;;19.30;43.60;;;;;;5054475;28;20045;-53
2021/04/28 10:22:55;;;;;;;19.73;17.35;;;19.30;44.30;;;;;;5051102;28;20509;-57
2021/04/28 10:25:21;;;;;;;19.40;17.33;;;19.30;44.00;;;;;;5056702;28;20040;-58
2021/04/28 10:27:48;;;;;;;19.92;17.83;;;19.30;44.00;;;;;;5050498;28;20479;-55
2021/04/28 10:30:17;;;;;;;18.55;16.67;;;19.30;43.80;;;;;;5034822;28;20448;-56
2021/04/28 10:32:43;;;;;;;20.73;17.58;;;19.10;43.10;;;;;;5057081;28;20040;-56
2021/04/28 10:35:13;;;;;;;20.52;18.33;;;19.20;43.90;;;;;;5062783;28;20322;-54
2021/04/28 10:37:41;;;;;;;19.05;17.10;;;19.30;44.10;;;;;;5066425;28;20414;-52
2021/04/28 10:40:21;;;;;;;20.48;17.48;;;19.40;43.20;;;;;;5061117;28;20170;-55
2021/04/28 10:42:48;;;;;;;21.27;19.17;;;19.40;43.50;;;;;;5053930;28;20033;-56
2021/04/28 10:45:23;;;;;;;24.48;20.95;;;19.40;43.40;;;;;;5042330;28;20502;-54
2021/04/28 10:47:53;;;;;;;21.20;19.00;;;19.50;43.00;;;;;;5061473;28;20033;-57
2021/04/28 10:50:40;;;;;;;20.05;17.45;;;19.50;43.30;;;;;;5050937;28;20037;-56
2021/04/28 10:53:16;;;;;;;21.25;18.35;;;19.70;43.00;;;;;;4997454;28;20041;-58
2021/04/28 10:55:53;;;;;;;22.00;19.42;;;19.70;42.40;;;;;;5039901;28;20087;-59
2021/04/28 10:58:31;;;;;;;19.88;17.83;;;19.60;42.60;;;;;;5040933;28;20445;-62
2021/04/28 11:03:29;;;;;;;23.27;18.55;;;19.70;42.80;;;;;;5054811;28;20500;-62
2021/04/28 11:05:55;;;;;;;22.67;18.33;;;19.80;42.80;;;;;;5048599;28;20044;-62
2021/04/28 11:08:39;;;;;;;27.17;23.75;;;20.10;50.10;;;;;;5051651;28;20037;-62
2021/04/28 11:11:41;;;;;;;21.70;19.52;;;19.90;42.50;;;;;;5052961;28;20037;-62
2021/04/28 11:16:43;;;;;;;20.42;17.70;;;20.20;42.80;;;;;;5063793;28;20441;-63
2021/04/28 11:19:32;;;;;;;21.17;18.30;;;20.10;42.20;;;;;;5067263;28;20041;-63
2021/04/28 11:22:13;;;;;;;22.27;18.65;;;20.00;47.00;;;;;;4988230;28;20259;-63
2021/04/28 11:25:12;;;;;;;22.75;18.02;;;19.90;41.60;;;;;;5060544;28;20051;-63
2021/04/28 11:28:03;;;;;;;23.67;19.48;;;19.80;41.60;;;;;;5029538;28;20033;-62
2021/04/28 11:30:32;;;;;;;24.30;18.17;;;19.80;42.30;;;;;;5033591;28;20033;-62
2021/04/28 11:33:27;;;;;;;20.27;17.85;;;19.90;42.80;;;;;;5036940;28;20918;-63
2021/04/28 11:35:53;;;;;;;33.28;20.60;;;20.00;42.40;;;;;;5057514;28;20080;-62
2021/04/28 11:38:26;;;;;;;34.35;22.50;;;20.10;44.60;;;;;;5052916;28;20048;-63
2021/04/28 11:40:52;;;;;;;19.40;17.33;;;20.20;41.40;;;;;;5050320;28;20111;-63
2021/04/28 11:43:23;;;;;;;19.25;17.17;;;20.30;41.20;;;;;;5051419;28;20143;-62
2021/04/28 11:45:51;;;;;;;23.58;18.00;;;20.30;40.90;;;;;;5048534;28;20037;-63
2021/04/28 11:48:22;;;;;;;20.38;18.27;;;20.50;40.60;;;;;;5062699;28;20115;-63
2021/04/28 11:51:00;;;;;;;25.60;18.58;;;20.70;40.00;;;;;;5043868;28;20549;-62
2021/04/28 11:53:27;;;;;;;24.35;17.88;;;21.00;39.10;;;;;;5030021;28;20435;-63
2021/04/28 11:55:53;;;;;;;18.63;16.70;;;21.20;38.70;;;;;;5051456;28;20057;-63
2021/04/28 11:58:23;;;;;;;21.92;18.75;;;21.60;37.90;;;;;;5052148;28;20552;-62
2021/04/28 12:01:10;;;;;;;21.88;18.20;;;21.90;37.20;;;;;;5057067;28;20032;-62
2021/04/28 12:03:54;;;;;;;20.83;16.52;;;22.40;35.60;;;;;;4995577;28;20042;-63
2021/04/28 12:06:41;;;;;;;17.90;16.13;;;23.10;34.70;;;;;;5058934;28;20094;-63
2021/04/28 12:09:47;;;;;;;19.25;17.15;;;24.00;38.30;;;;;;5026972;28;20041;-63
2021/04/28 12:12:17;;;;;;;19.80;17.80;;;24.50;35.40;;;;;;5005676;28;20056;-63
2021/04/28 12:15:06;;;;;;;17.58;15.75;;;24.80;33.90;;;;;;5053046;28;20112;-63
2021/04/28 12:17:33;;;;;;;22.75;17.80;;;24.40;33.50;;;;;;5013137;28;20407;-63
2021/04/28 12:20:00;;;;;;;20.50;18.52;;;24.10;37.00;;;;;;5037063;28;20487;-63
2021/04/28 12:22:28;;;;;;;21.67;19.35;;;23.60;36.80;;;;;;5046322;28;20526;-63
2021/04/28 12:24:58;;;;;;;19.92;17.33;;;23.10;36.20;;;;;;5046220;28;20052;-63
2021/04/28 12:27:29;;;;;;;21.23;17.90;;;23.00;35.80;;;;;;5057862;28;20106;-63
2021/04/28 12:29:58;;;;;;;22.05;19.75;;;23.20;34.90;;;;;;5045868;28;20087;-63
2021/04/28 12:32:35;;;;;;;18.95;17.08;;;23.10;34.40;;;;;;5047615;28;20043;-63
2021/04/28 12:35:09;;;;;;;20.80;18.75;;;22.90;33.00;;;;;;5046870;28;20048;-63
2021/04/28 12:37:35;;;;;;;19.73;17.77;;;22.40;33.70;;;;;;5064277;28;20036;-62
2021/04/28 12:40:03;;;;;;;18.33;16.30;;;22.10;35.40;;;;;;5047351;28;20025;-63